Time;durP1;ratioP1;P1;durP2;ratioP2;P2;SDS_P1;SDS_P2;PMS_P1;PMS_P2;Temp;Humidity;BMP_temperature;BMP_pressure;BME280_temperature;BME280_humidity;BME280_pressure;Samples;Min_cycle;Max_cycle;Signal;HPM_P1;HPM_P2
2021/10/17 00:00:18;;;;;;;17.60;7.55;;;10.50;99.90;;;;;;4999921;28;20042;-74
2021/10/17 00:02:45;;;;;;;18.98;8.20;;;10.50;99.90;;;;;;4998417;28;20037;-74
2021/10/17 00:05:12;;;;;;;18.92;8.85;;;10.40;99.90;;;;;;5003759;28;20135;-74
2021/10/17 00:07:38;;;;;;;25.75;8.20;;;10.40;99.90;;;;;;5002235;28;20040;-74
2021/10/17 00:10:07;;;;;;;20.83;8.65;;;10.40;99.90;;;;;;5009156;28;20155;-74
2021/10/17 00:12:33;;;;;;;22.02;8.80;;;10.40;99.90;;;;;;5005579;28;20049;-74
2021/10/17 00:14:59;;;;;;;23.63;8.80;;;10.40;99.90;;;;;;5007787;28;20045;-75
2021/10/17 00:17:25;;;;;;;22.52;8.70;;;10.40;99.90;;;;;;5002434;28;20801;-75
2021/10/17 00:19:51;;;;;;;20.27;9.48;;;10.40;99.90;;;;;;4987342;28;20127;-75
2021/10/17 00:22:16;;;;;;;20.63;9.13;;;10.40;99.90;;;;;;5007778;28;20045;-74
2021/10/17 00:24:42;;;;;;;17.00;9.32;;;10.30;99.90;;;;;;4992097;28;20041;-74
2021/10/17 00:27:08;;;;;;;21.33;9.55;;;10.30;99.90;;;;;;5005805;28;20064;-74
2021/10/17 00:29:33;;;;;;;20.65;9.32;;;10.30;99.90;;;;;;5007469;28;20038;-74
2021/10/17 00:32:00;;;;;;;20.48;9.63;;;10.20;99.90;;;;;;5005305;28;20038;-74
2021/10/17 00:34:27;;;;;;;23.65;10.00;;;10.20;99.90;;;;;;4990946;28;20413;-74
2021/10/17 00:36:53;;;;;;;21.88;10.27;;;10.20;99.90;;;;;;5008684;28;20041;-74
2021/10/17 00:39:18;;;;;;;19.67;9.95;;;10.20;99.90;;;;;;5009032;28;20034;-75
2021/10/17 00:41:45;;;;;;;25.20;10.57;;;10.10;99.90;;;;;;5007735;28;20116;-75
2021/10/17 00:44:21;;;;;;;19.05;10.27;;;10.10;99.90;;;;;;5007127;28;20107;-74
2021/10/17 00:46:48;;;;;;;27.70;10.48;;;10.10;99.90;;;;;;5006494;28;20049;-74
2021/10/17 00:49:14;;;;;;;25.55;10.40;;;10.00;99.90;;;;;;4991877;28;20488;-74
2021/10/17 00:51:42;;;;;;;25.27;10.40;;;10.00;99.90;;;;;;5011662;28;20033;-74
2021/10/17 00:54:11;;;;;;;21.08;10.13;;;9.90;99.90;;;;;;5013424;28;20120;-74
2021/10/17 00:56:37;;;;;;;21.05;10.45;;;9.80;99.90;;;;;;5013542;28;20420;-74
2021/10/17 00:59:04;;;;;;;20.83;10.35;;;9.90;99.90;;;;;;5013222;28;20068;-74
2021/10/17 01:01:30;;;;;;;22.42;10.27;;;9.80;99.90;;;;;;5011998;28;20099;-74
2021/10/17 01:03:55;;;;;;;30.33;11.35;;;9.80;99.90;;;;;;5011333;28;20389;-74
2021/10/17 01:06:21;;;;;;;27.77;10.50;;;9.80;99.90;;;;;;5011021;28;20037;-74
2021/10/17 01:08:47;;;;;;;29.42;10.35;;;9.80;99.90;;;;;;5024142;28;20050;-74
2021/10/17 01:11:13;;;;;;;21.27;10.55;;;9.80;99.90;;;;;;5011387;28;20057;-74
2021/10/17 01:13:38;;;;;;;20.55;9.85;;;9.90;99.90;;;;;;4993789;28;20088;-74
2021/10/17 01:16:04;;;;;;;21.45;10.63;;;9.70;99.90;;;;;;5010607;28;20042;-74
2021/10/17 01:18:31;;;;;;;20.67;10.27;;;9.70;99.90;;;;;;5011929;28;21709;-74
2021/10/17 01:20:57;;;;;;;21.70;10.13;;;9.70;99.90;;;;;;5010326;28;20121;-74
2021/10/17 01:23:22;;;;;;;28.25;10.70;;;9.60;99.90;;;;;;5010864;28;20460;-74
2021/10/17 01:25:49;;;;;;;20.77;11.35;;;9.70;99.90;;;;;;5011165;28;20042;-74
2021/10/17 01:28:14;;;;;;;26.27;10.95;;;9.70;99.90;;;;;;5010798;28;20053;-75
2021/10/17 01:30:40;;;;;;;24.55;11.07;;;9.70;99.90;;;;;;5009579;28;20046;-74
2021/10/17 01:33:06;;;;;;;22.00;10.82;;;9.60;99.90;;;;;;5010761;28;20034;-74
2021/10/17 01:35:33;;;;;;;24.92;11.63;;;9.60;99.90;;;;;;4993675;28;20365;-74
2021/10/17 01:37:59;;;;;;;23.45;11.05;;;9.60;99.90;;;;;;4994389;28;20034;-74
2021/10/17 01:40:25;;;;;;;19.98;11.18;;;9.50;99.90;;;;;;5010676;28;20065;-74
2021/10/17 01:42:51;;;;;;;21.58;11.93;;;9.50;99.90;;;;;;5010359;28;20033;-74
2021/10/17 01:45:16;;;;;;;28.58;12.20;;;9.40;99.90;;;;;;5010956;28;20091;-74
2021/10/17 01:47:49;;;;;;;21.67;12.02;;;9.40;99.90;;;;;;5010311;28;20481;-74
2021/10/17 01:50:15;;;;;;;22.40;11.95;;;9.40;99.90;;;;;;5010623;28;20041;-74
2021/10/17 01:52:41;;;;;;;25.35;12.30;;;9.40;99.90;;;;;;5010925;28;20088;-74
2021/10/17 01:55:07;;;;;;;27.45;12.30;;;9.40;99.90;;;;;;4994051;28;20501;-74
2021/10/17 01:57:33;;;;;;;24.83;12.43;;;9.40;99.90;;;;;;5009711;28;20457;-74
2021/10/17 01:59:58;;;;;;;26.08;12.60;;;9.30;99.90;;;;;;5009538;28;20046;-74
2021/10/17 02:02:24;;;;;;;22.23;12.52;;;9.40;99.90;;;;;;5008936;28;20046;-74
2021/10/17 02:04:50;;;;;;;28.27;12.07;;;9.40;99.90;;;;;;5009471;28;20132;-74
2021/10/17 02:07:16;;;;;;;22.70;12.13;;;9.40;99.90;;;;;;5010622;28;20042;-75
2021/10/17 02:09:41;;;;;;;24.85;12.63;;;9.40;99.90;;;;;;5009887;28;20057;-73
2021/10/17 02:12:07;;;;;;;27.15;13.00;;;9.40;99.90;;;;;;4993754;28;20056;-74
2021/10/17 02:14:34;;;;;;;24.48;12.95;;;9.50;99.90;;;;;;5008692;28;20094;-74
2021/10/17 02:17:00;;;;;;;25.00;13.50;;;9.50;99.90;;;;;;5010502;28;20050;-74
2021/10/17 02:19:26;;;;;;;24.77;13.45;;;9.50;99.90;;;;;;5009727;28;20643;-75
2021/10/17 02:21:51;;;;;;;26.90;13.90;;;9.40;99.90;;;;;;5010021;28;20057;-74
2021/10/17 02:24:17;;;;;;;29.08;14.15;;;9.50;99.90;;;;;;5009619;28;20123;-74
2021/10/17 02:26:43;;;;;;;32.63;15.02;;;9.60;99.90;;;;;;5010248;28;20358;-74
2021/10/17 02:29:08;;;;;;;29.77;14.55;;;9.60;99.90;;;;;;5009954;28;20042;-74
2021/10/17 02:31:34;;;;;;;28.55;15.23;;;9.60;99.90;;;;;;5010704;28;20604;-75
2021/10/17 02:34:00;;;;;;;31.13;15.93;;;9.60;99.90;;;;;;5009390;28;20089;-74
2021/10/17 02:36:26;;;;;;;32.50;16.05;;;9.60;99.90;;;;;;5004299;28;20076;-74
2021/10/17 02:38:51;;;;;;;26.92;14.48;;;9.60;99.90;;;;;;4990411;28;20129;-75
2021/10/17 02:41:17;;;;;;;39.33;15.23;;;9.60;99.90;;;;;;5006996;28;20049;-74
2021/10/17 02:43:43;;;;;;;32.78;15.52;;;9.60;99.90;;;;;;5010081;28;20049;-74
2021/10/17 02:46:09;;;;;;;28.58;14.57;;;9.60;99.90;;;;;;5007727;28;20038;-74
2021/10/17 02:48:34;;;;;;;28.95;15.45;;;9.60;99.90;;;;;;5009990;28;20499;-74
2021/10/17 02:51:00;;;;;;;33.85;15.63;;;9.60;99.90;;;;;;5008933;28;20061;-74
2021/10/17 02:53:26;;;;;;;31.83;15.73;;;9.60;99.90;;;;;;5009623;28;20144;-74
2021/10/17 02:55:52;;;;;;;28.67;15.05;;;9.60;99.90;;;;;;5009876;28;20042;-74
2021/10/17 02:58:17;;;;;;;26.13;14.23;;;9.60;99.90;;;;;;4991272;28;20061;-74
2021/10/17 03:00:43;;;;;;;26.10;14.73;;;9.60;99.90;;;;;;5008272;28;20473;-74
2021/10/17 03:03:09;;;;;;;26.95;14.90;;;9.60;99.90;;;;;;5009513;28;20501;-74
2021/10/17 03:05:35;;;;;;;32.17;14.98;;;9.60;99.90;;;;;;5008473;28;20125;-74
2021/10/17 03:08:00;;;;;;;29.63;16.02;;;9.60;99.90;;;;;;4992737;28;20053;-74
2021/10/17 03:10:26;;;;;;;34.28;16.17;;;9.60;99.90;;;;;;5009034;28;20034;-75
2021/10/17 03:12:52;;;;;;;27.80;16.10;;;9.60;99.90;;;;;;5009332;28;20038;-74
2021/10/17 03:15:18;;;;;;;37.75;17.23;;;9.60;99.90;;;;;;5009386;28;20037;-74
2021/10/17 03:17:43;;;;;;;31.80;16.48;;;9.60;99.90;;;;;;5008801;28;20046;-75
2021/10/17 03:20:10;;;;;;;34.15;16.58;;;9.60;99.90;;;;;;5007819;28;20833;-74
2021/10/17 03:22:37;;;;;;;31.50;16.73;;;9.60;99.90;;;;;;4994307;28;20034;-75
2021/10/17 03:25:04;;;;;;;36.65;17.67;;;9.60;99.90;;;;;;5009180;28;20038;-74
2021/10/17 03:27:29;;;;;;;31.75;16.20;;;9.60;99.90;;;;;;5009052;28;20092;-74
2021/10/17 03:29:55;;;;;;;32.20;16.63;;;9.60;99.90;;;;;;5009071;28;20493;-74
2021/10/17 03:32:20;;;;;;;33.60;16.08;;;9.60;99.90;;;;;;5009519;28;20069;-74
2021/10/17 03:34:46;;;;;;;32.35;15.88;;;9.60;99.90;;;;;;5007455;28;20049;-74
2021/10/17 03:37:12;;;;;;;36.70;15.25;;;9.60;99.90;;;;;;5007820;28;20577;-74
2021/10/17 03:39:38;;;;;;;27.45;15.07;;;9.70;99.90;;;;;;5009479;28;20171;-74
2021/10/17 03:42:04;;;;;;;27.15;15.05;;;9.60;99.90;;;;;;5008316;28;20481;-75
2021/10/17 03:44:29;;;;;;;24.98;14.43;;;9.60;99.90;;;;;;5006752;28;20115;-75
2021/10/17 03:46:55;;;;;;;26.98;13.70;;;9.60;99.90;;;;;;4991791;28;20088;-74
2021/10/17 03:49:20;;;;;;;23.88;13.13;;;9.60;99.90;;;;;;5007981;28;20041;-75
2021/10/17 03:51:46;;;;;;;24.40;13.55;;;9.60;99.90;;;;;;5008123;28;20037;-75
2021/10/17 03:54:12;;;;;;;30.98;13.13;;;9.70;99.90;;;;;;5008646;28;20045;-74
2021/10/17 03:56:37;;;;;;;23.23;12.90;;;9.70;99.90;;;;;;4991509;28;20061;-74
2021/10/17 03:59:03;;;;;;;23.15;11.77;;;9.70;99.90;;;;;;5008995;28;20045;-74
2021/10/17 04:01:30;;;;;;;23.13;12.05;;;9.70;99.90;;;;;;5008334;28;20037;-74
2021/10/17 04:03:55;;;;;;;22.27;11.27;;;9.60;99.90;;;;;;5007220;28;20405;-74
2021/10/17 04:06:21;;;;;;;22.02;11.40;;;9.70;99.90;;;;;;5008745;28;20033;-73
2021/10/17 04:08:47;;;;;;;26.13;11.85;;;9.60;99.90;;;;;;5007524;28;20056;-74
2021/10/17 04:11:13;;;;;;;23.48;11.02;;;9.60;99.90;;;;;;5008281;28;20491;-74
2021/10/17 04:13:39;;;;;;;25.60;11.00;;;9.60;99.90;;;;;;5008426;28;20124;-74
2021/10/17 04:16:05;;;;;;;17.63;9.93;;;9.70;99.90;;;;;;5007908;28;20379;-74
2021/10/17 04:18:31;;;;;;;27.83;10.38;;;9.60;99.90;;;;;;5007289;28;20052;-75
2021/10/17 04:20:57;;;;;;;23.45;10.55;;;9.60;99.90;;;;;;5007518;28;20037;-74
2021/10/17 04:23:23;;;;;;;24.52;11.32;;;9.60;99.90;;;;;;5006986;28;20069;-74
2021/10/17 04:25:49;;;;;;;21.42;9.45;;;9.60;99.90;;;;;;5008792;28;20069;-74
2021/10/17 04:28:14;;;;;;;24.80;10.30;;;9.60;99.90;;;;;;5008728;28;20050;-74
2021/10/17 04:30:40;;;;;;;22.92;9.68;;;9.60;99.90;;;;;;5008366;28;20064;-75
2021/10/17 04:33:06;;;;;;;21.13;9.38;;;9.60;99.90;;;;;;4996078;28;20034;-74
2021/10/17 04:35:40;;;;;;;19.38;9.10;;;9.60;99.90;;;;;;5011250;28;20104;-74
2021/10/17 04:38:06;;;;;;;21.17;9.25;;;9.60;99.90;;;;;;5008632;28;20042;-74
2021/10/17 04:40:34;;;;;;;21.30;9.85;;;9.70;99.90;;;;;;4994700;28;20034;-74
2021/10/17 04:43:00;;;;;;;25.10;9.60;;;9.60;99.90;;;;;;5011467;28;20065;-74
2021/10/17 04:45:26;;;;;;;22.02;9.38;;;9.60;99.90;;;;;;5011410;28;20450;-74
2021/10/17 04:47:52;;;;;;;21.88;9.77;;;9.60;99.90;;;;;;5012034;28;20046;-75
2021/10/17 04:50:18;;;;;;;20.45;8.93;;;9.60;99.90;;;;;;5009627;28;20042;-74
2021/10/17 04:52:43;;;;;;;21.77;9.35;;;9.60;99.90;;;;;;5011771;28;20041;-74
2021/10/17 04:55:09;;;;;;;21.63;9.82;;;9.60;99.90;;;;;;5011635;28;20132;-74
2021/10/17 04:57:35;;;;;;;22.17;9.52;;;9.60;99.90;;;;;;5011837;28;20042;-74
2021/10/17 05:00:03;;;;;;;23.55;9.90;;;9.60;99.90;;;;;;5010566;28;20112;-74
2021/10/17 05:02:28;;;;;;;24.98;9.98;;;9.60;99.90;;;;;;4995924;28;20378;-75
2021/10/17 05:04:54;;;;;;;21.70;9.27;;;9.60;99.90;;;;;;4987032;28;20054;-74
2021/10/17 05:07:20;;;;;;;22.23;8.55;;;9.60;99.90;;;;;;5013356;28;20054;-74
2021/10/17 05:09:45;;;;;;;19.83;9.07;;;9.60;99.90;;;;;;5009997;28;20539;-74
2021/10/17 05:12:11;;;;;;;21.17;8.57;;;9.60;99.90;;;;;;5011398;28;20080;-74
2021/10/17 05:14:36;;;;;;;18.98;8.25;;;9.60;99.90;;;;;;5010780;28;20121;-74
2021/10/17 05:17:02;;;;;;;20.52;8.82;;;9.60;99.90;;;;;;5011369;28;20070;-74
2021/10/17 05:19:28;;;;;;;18.13;8.13;;;9.60;99.90;;;;;;5011156;28;20080;-74
2021/10/17 05:21:54;;;;;;;19.77;8.75;;;9.70;99.90;;;;;;5009792;28;20042;-74
2021/10/17 05:24:19;;;;;;;17.20;8.30;;;9.70;99.90;;;;;;5008058;28;20069;-74
2021/10/17 05:26:45;;;;;;;17.52;8.05;;;9.70;99.90;;;;;;5007133;28;20187;-75
2021/10/17 05:29:11;;;;;;;19.90;7.53;;;9.70;99.90;;;;;;5003728;28;20366;-74
2021/10/17 05:31:37;;;;;;;18.83;7.38;;;9.70;99.90;;;;;;4990723;28;20550;-74
2021/10/17 05:34:02;;;;;;;22.08;7.25;;;9.70;99.90;;;;;;5000989;28;20137;-74
2021/10/17 05:36:28;;;;;;;14.93;7.78;;;9.70;99.90;;;;;;5005343;28;20038;-74
2021/10/17 05:38:54;;;;;;;21.73;7.65;;;9.70;99.90;;;;;;4991375;28;20124;-74
2021/10/17 05:41:22;;;;;;;16.75;7.15;;;9.70;99.90;;;;;;5006142;28;20293;-74
2021/10/17 05:43:48;;;;;;;15.70;6.70;;;9.70;99.90;;;;;;5001359;28;21999;-74
2021/10/17 05:46:14;;;;;;;17.33;7.55;;;9.70;99.90;;;;;;4994253;28;20035;-74
2021/10/17 05:48:40;;;;;;;21.15;7.75;;;9.60;99.90;;;;;;5003506;28;20191;-74
2021/10/17 05:51:05;;;;;;;18.60;6.90;;;9.60;99.90;;;;;;4995838;28;20089;-74
2021/10/17 05:53:31;;;;;;;23.50;8.00;;;9.60;99.90;;;;;;5009370;28;20469;-74
2021/10/17 05:55:56;;;;;;;20.77;7.95;;;9.60;99.90;;;;;;4999077;28;20042;-74
2021/10/17 05:58:22;;;;;;;23.73;7.50;;;9.50;99.90;;;;;;5000262;28;20053;-74
2021/10/17 06:00:48;;;;;;;19.85;7.60;;;9.60;99.90;;;;;;5001041;28;20382;-74
2021/10/17 06:03:13;;;;;;;18.77;7.32;;;9.60;99.90;;;;;;5009368;28;20057;-74
2021/10/17 06:05:39;;;;;;;15.88;7.60;;;9.60;99.90;;;;;;4997543;28;20038;-75
2021/10/17 06:08:05;;;;;;;20.05;7.32;;;9.60;99.90;;;;;;5005012;28;20037;-74
2021/10/17 06:10:30;;;;;;;21.67;8.00;;;9.60;99.90;;;;;;5005920;28;20092;-74
2021/10/17 06:12:56;;;;;;;13.98;6.90;;;9.60;99.90;;;;;;5007179;28;20048;-74
2021/10/17 06:15:22;;;;;;;17.30;7.70;;;9.60;99.90;;;;;;4997832;28;20046;-74
2021/10/17 06:17:47;;;;;;;22.15;8.20;;;9.60;99.90;;;;;;5000264;28;20116;-75
2021/10/17 06:20:13;;;;;;;19.10;7.90;;;9.50;99.90;;;;;;5006710;28;20092;-74
2021/10/17 06:22:39;;;;;;;20.42;8.25;;;9.60;99.90;;;;;;5006679;28;20038;-74
2021/10/17 06:25:05;;;;;;;16.88;7.80;;;9.60;99.90;;;;;;5005589;28;20046;-74
2021/10/17 06:27:31;;;;;;;15.60;7.53;;;9.60;99.90;;;;;;4974988;28;1101932;-74
2021/10/17 06:29:56;;;;;;;20.88;7.65;;;9.70;99.90;;;;;;5010076;28;20429;-73
2021/10/17 06:32:22;;;;;;;19.10;7.90;;;9.70;99.90;;;;;;5013496;28;20437;-74
2021/10/17 06:34:48;;;;;;;24.30;8.13;;;9.70;99.90;;;;;;5013032;28;20041;-73
2021/10/17 06:37:13;;;;;;;15.95;7.85;;;9.70;99.90;;;;;;5013817;28;20069;-73
2021/10/17 06:39:39;;;;;;;20.75;7.60;;;9.70;99.90;;;;;;5013123;28;20030;-74
2021/10/17 06:42:05;;;;;;;17.20;7.30;;;9.60;99.90;;;;;;5012647;28;20166;-73
2021/10/17 06:44:31;;;;;;;18.83;8.38;;;9.80;99.90;;;;;;5012017;28;20037;-73
2021/10/17 06:46:56;;;;;;;25.63;8.02;;;9.70;99.90;;;;;;5011267;28;20094;-74
2021/10/17 06:49:22;;;;;;;18.67;8.18;;;9.70;99.90;;;;;;5010117;28;20345;-73
2021/10/17 06:51:48;;;;;;;20.27;8.25;;;9.70;99.90;;;;;;4991985;28;20129;-73
2021/10/17 06:54:13;;;;;;;18.17;7.95;;;9.70;99.90;;;;;;5013433;28;20052;-74
2021/10/17 06:56:39;;;;;;;23.23;8.43;;;9.70;99.90;;;;;;5012305;28;20469;-73
2021/10/17 06:59:05;;;;;;;21.30;8.60;;;9.70;99.90;;;;;;5012781;28;20102;-73
2021/10/17 07:01:30;;;;;;;16.77;8.00;;;9.70;99.90;;;;;;5011763;28;20053;-73
2021/10/17 07:03:56;;;;;;;19.58;8.45;;;9.70;99.90;;;;;;4995969;28;20053;-74
2021/10/17 07:06:22;;;;;;;22.15;8.90;;;9.80;99.90;;;;;;5013034;28;20363;-73
2021/10/17 07:08:47;;;;;;;18.38;8.50;;;9.70;99.90;;;;;;5012450;28;20038;-73
2021/10/17 07:11:13;;;;;;;20.52;8.13;;;9.80;99.90;;;;;;5011196;28;20497;-73
2021/10/17 07:13:38;;;;;;;20.75;7.95;;;9.80;99.90;;;;;;4996672;28;20041;-73
2021/10/17 07:16:04;;;;;;;19.20;8.55;;;9.80;99.90;;;;;;5013001;28;20037;-73
2021/10/17 07:18:30;;;;;;;14.40;8.20;;;9.80;99.90;;;;;;4996365;28;20064;-73
2021/10/17 07:20:56;;;;;;;24.33;8.02;;;9.80;99.90;;;;;;5010746;28;20049;-74
2021/10/17 07:23:22;;;;;;;17.90;7.82;;;9.80;99.90;;;;;;5009126;28;20049;-74
2021/10/17 07:25:47;;;;;;;17.00;7.78;;;9.80;99.90;;;;;;4995443;28;20476;-72
2021/10/17 07:28:14;;;;;;;25.88;8.27;;;9.90;99.90;;;;;;5008271;28;20049;-73
2021/10/17 07:30:39;;;;;;;18.70;8.00;;;9.90;99.90;;;;;;4994989;28;20405;-72
2021/10/17 07:33:05;;;;;;;24.35;8.43;;;9.90;99.90;;;;;;5009548;28;20040;-74
2021/10/17 07:35:31;;;;;;;18.48;7.47;;;9.90;99.90;;;;;;5006846;28;20061;-74
2021/10/17 07:37:57;;;;;;;19.42;8.13;;;10.00;99.90;;;;;;5009080;28;20041;-75
2021/10/17 07:40:24;;;;;;;18.23;8.18;;;10.00;99.90;;;;;;5006653;28;20034;-76
2021/10/17 07:42:50;;;;;;;17.42;8.30;;;10.00;99.90;;;;;;5007634;28;20130;-75
2021/10/17 07:45:16;;;;;;;18.50;8.07;;;10.00;99.90;;;;;;5008182;28;20167;-76
2021/10/17 07:47:41;;;;;;;24.67;8.38;;;10.00;99.90;;;;;;5007686;28;20067;-77
2021/10/17 07:50:09;;;;;;;24.20;8.75;;;10.10;99.90;;;;;;5005592;28;20095;-77
2021/10/17 07:52:36;;;;;;;20.40;7.80;;;10.10;99.90;;;;;;5006810;28;20037;-80
2021/10/17 07:55:03;;;;;;;20.63;8.38;;;10.20;99.90;;;;;;5007513;28;20537;-78
2021/10/17 07:57:28;;;;;;;18.65;8.05;;;10.20;99.90;;;;;;5007916;28;20034;-76
2021/10/17 07:59:54;;;;;;;18.98;7.70;;;10.20;99.90;;;;;;5007215;28;20042;-77
2021/10/17 08:02:20;;;;;;;20.90;8.65;;;10.20;99.90;;;;;;5007043;28;20056;-77
2021/10/17 08:04:48;;;;;;;16.15;8.25;;;10.30;99.90;;;;;;5006083;28;20056;-75
2021/10/17 08:07:16;;;;;;;22.05;8.20;;;10.30;99.90;;;;;;5008407;28;20451;-75
2021/10/17 08:09:42;;;;;;;20.95;8.43;;;10.30;99.90;;;;;;5007813;28;20069;-76
2021/10/17 08:12:08;;;;;;;20.02;7.97;;;10.30;99.90;;;;;;5002774;28;20069;-77
2021/10/17 08:14:34;;;;;;;19.13;8.23;;;10.40;99.90;;;;;;4988410;28;20134;-76
2021/10/17 08:17:00;;;;;;;20.13;7.75;;;10.40;99.90;;;;;;5005029;28;20461;-81
2021/10/17 08:19:25;;;;;;;24.88;8.20;;;10.50;99.90;;;;;;4992165;28;20066;-79
2021/10/17 08:21:51;;;;;;;18.80;7.78;;;10.90;99.90;;;;;;4990714;28;20077;-80
2021/10/17 08:24:17;;;;;;;18.45;7.93;;;10.50;99.90;;;;;;4992200;28;20113;-80
2021/10/17 08:26:43;;;;;;;24.77;7.97;;;10.50;99.90;;;;;;5007611;28;20112;-78
2021/10/17 08:29:09;;;;;;;19.73;7.90;;;10.50;99.90;;;;;;4990003;28;20081;-79
2021/10/17 08:31:35;;;;;;;19.48;9.05;;;10.50;99.90;;;;;;5007679;28;20119;-79
2021/10/17 08:34:00;;;;;;;23.52;8.15;;;10.40;99.90;;;;;;5007744;28;20148;-78
2021/10/17 08:36:26;;;;;;;21.27;5.60;;;10.50;99.90;;;;;;5007359;28;20046;-76
2021/10/17 08:38:52;;;;;;;17.48;7.35;;;11.70;99.90;;;;;;5008864;28;20052;-78
2021/10/17 08:41:17;;;;;;;16.73;7.60;;;11.40;99.90;;;;;;5008434;28;20158;-77
2021/10/17 08:43:43;;;;;;;20.13;8.13;;;11.20;99.90;;;;;;4993284;28;20037;-78
2021/10/17 08:46:11;;;;;;;24.17;8.05;;;11.10;99.90;;;;;;5004028;28;20045;-80
2021/10/17 08:48:38;;;;;;;22.55;8.60;;;11.00;99.90;;;;;;5008454;28;20054;-77
2021/10/17 08:51:07;;;;;;;20.10;8.23;;;10.90;99.90;;;;;;5007169;28;20169;-75
2021/10/17 08:53:33;;;;;;;20.60;7.68;;;10.90;99.90;;;;;;5007618;28;20126;-78
2021/10/17 08:55:59;;;;;;;18.67;8.02;;;10.90;99.90;;;;;;4975079;28;20448;-78
2021/10/17 08:58:25;;;;;;;16.40;8.02;;;10.90;99.90;;;;;;5007630;28;20045;-78
2021/10/17 09:00:51;;;;;;;22.60;8.02;;;10.90;99.90;;;;;;5007853;28;20169;-76
2021/10/17 09:03:33;;;;;;;20.40;8.15;;;10.90;99.90;;;;;;5010048;28;20069;-77
2021/10/17 09:06:20;;;;;;;14.93;8.50;;;10.90;99.90;;;;;;5009300;28;20045;-76
2021/10/17 09:08:46;;;;;;;17.30;8.40;;;10.90;99.90;;;;;;5010079;28;20133;-76
2021/10/17 09:11:12;;;;;;;23.10;8.80;;;10.90;99.90;;;;;;5009562;28;20073;-77
2021/10/17 09:14:04;;;;;;;16.65;8.07;;;10.90;99.90;;;;;;5004151;28;20524;-77
2021/10/17 09:16:34;;;;;;;20.70;8.45;;;10.90;99.90;;;;;;4994583;28;20061;-77
2021/10/17 09:19:10;;;;;;;19.02;7.95;;;10.90;99.90;;;;;;5012150;28;20064;-77
2021/10/17 09:21:36;;;;;;;23.00;8.48;;;10.90;99.90;;;;;;5012632;28;20053;-77
2021/10/17 09:24:02;;;;;;;22.58;8.35;;;10.90;99.90;;;;;;5013272;28;20053;-75
2021/10/17 09:26:27;;;;;;;18.88;8.13;;;10.90;99.90;;;;;;4995747;28;20553;-77
2021/10/17 09:28:53;;;;;;;27.42;8.60;;;11.00;99.90;;;;;;5012042;28;20045;-76
2021/10/17 09:31:21;;;;;;;21.75;8.15;;;11.00;99.90;;;;;;5003151;28;20382;-77
2021/10/17 09:33:56;;;;;;;19.58;8.32;;;11.00;99.90;;;;;;5014503;28;20096;-75
2021/10/17 09:36:26;;;;;;;18.50;8.05;;;11.10;99.90;;;;;;5012600;28;20049;-75
2021/10/17 09:38:55;;;;;;;21.15;8.38;;;11.10;99.90;;;;;;4983213;28;20520;-75
2021/10/17 09:41:33;;;;;;;17.63;8.30;;;11.10;99.90;;;;;;4997879;28;20489;-78
2021/10/17 09:44:00;;;;;;;18.08;8.27;;;11.20;99.90;;;;;;5013665;28;20137;-77
2021/10/17 09:46:27;;;;;;;20.10;8.35;;;11.10;99.90;;;;;;5011918;28;20045;-78
2021/10/17 09:48:53;;;;;;;20.15;8.05;;;11.20;99.90;;;;;;5011840;28;20112;-77
2021/10/17 09:51:29;;;;;;;19.55;8.38;;;11.20;99.90;;;;;;5014540;28;20094;-77
2021/10/17 09:53:58;;;;;;;18.52;8.73;;;11.20;99.90;;;;;;4993815;28;20061;-78
2021/10/17 09:56:34;;;;;;;17.05;7.70;;;11.30;99.90;;;;;;5002769;28;20053;-76
2021/10/17 09:59:02;;;;;;;17.90;8.07;;;11.30;99.90;;;;;;5013964;28;20507;-76
2021/10/17 10:01:28;;;;;;;21.30;8.80;;;11.40;99.90;;;;;;5018388;28;20049;-76
2021/10/17 10:03:56;;;;;;;22.40;8.93;;;11.40;99.90;;;;;;4997473;28;20060;-76
2021/10/17 10:06:23;;;;;;;31.15;7.90;;;11.50;99.90;;;;;;5008882;28;20076;-77
2021/10/17 10:08:53;;;;;;;17.52;7.75;;;11.70;99.90;;;;;;4998456;28;20053;-79
2021/10/17 10:11:25;;;;;;;21.00;8.30;;;11.80;99.90;;;;;;5017358;28;20060;-78
2021/10/17 10:13:52;;;;;;;23.40;7.40;;;11.90;99.90;;;;;;5012743;28;20073;-79
2021/10/17 10:16:21;;;;;;;21.23;9.00;;;12.10;99.90;;;;;;5012815;28;20072;-81
2021/10/17 10:18:50;;;;;;;22.40;8.88;;;12.20;99.90;;;;;;5012389;28;20053;-78
2021/10/17 10:21:16;;;;;;;20.70;8.20;;;12.30;99.90;;;;;;5014296;28;20095;-82
2021/10/17 10:23:42;;;;;;;25.67;7.68;;;12.40;99.90;;;;;;5028879;28;20037;-77
2021/10/17 10:26:08;;;;;;;28.58;7.22;;;12.70;99.90;;;;;;5013007;28;20111;-77
2021/10/17 10:28:37;;;;;;;22.73;8.13;;;13.00;99.90;;;;;;5013220;28;20045;-85
2021/10/17 10:31:02;;;;;;;20.65;8.35;;;13.10;99.90;;;;;;5017668;28;20048;-78
2021/10/17 10:33:40;;;;;;;19.85;8.02;;;13.00;99.90;;;;;;4994288;28;20051;-78
2021/10/17 10:36:15;;;;;;;21.30;8.00;;;12.90;99.90;;;;;;5001360;28;20052;-80
2021/10/17 10:38:53;;;;;;;17.08;7.43;;;12.80;99.90;;;;;;5015422;28;20139;-82
2021/10/17 10:41:21;;;;;;;18.48;8.20;;;12.80;99.90;;;;;;5012030;28;20057;-82
2021/10/17 10:43:48;;;;;;;15.80;7.50;;;12.70;99.90;;;;;;5003428;28;20052;-77
2021/10/17 10:46:30;;;;;;;20.15;7.50;;;12.70;99.90;;;;;;4999443;28;20044;-80
2021/10/17 10:48:56;;;;;;;18.90;7.82;;;12.70;99.90;;;;;;4978621;28;20093;-83
2021/10/17 10:51:41;;;;;;;17.58;8.05;;;12.60;99.90;;;;;;4989325;28;20131;-81
2021/10/17 10:54:27;;;;;;;29.08;7.70;;;12.60;99.90;;;;;;4998064;28;20041;-78
2021/10/17 10:56:55;;;;;;;17.63;7.72;;;12.60;99.90;;;;;;5015614;28;20559;-81
2021/10/17 10:59:25;;;;;;;15.50;7.50;;;12.60;99.90;;;;;;4992388;28;20062;-80
2021/10/17 11:02:00;;;;;;;17.35;7.55;;;12.50;99.90;;;;;;5015417;28;20365;-78
2021/10/17 11:04:39;;;;;;;14.48;6.95;;;12.50;99.90;;;;;;5009697;28;20064;-75
2021/10/17 11:07:20;;;;;;;19.63;7.53;;;12.70;99.90;;;;;;5010914;28;20045;-78
2021/10/17 11:09:51;;;;;;;16.88;7.60;;;12.70;99.90;;;;;;5021780;28;20045;-82
2021/10/17 11:12:39;;;;;;;14.80;7.70;;;12.70;99.90;;;;;;5011762;28;20108;-82
2021/10/17 11:15:06;;;;;;;16.98;7.75;;;12.60;99.90;;;;;;5012260;28;20120;-83
2021/10/17 11:17:32;;;;;;;17.85;7.55;;;12.70;99.90;;;;;;5012135;28;20064;-80
2021/10/17 11:19:57;;;;;;;19.75;7.65;;;12.70;99.90;;;;;;4995713;28;20115;-84
2021/10/17 11:22:24;;;;;;;17.33;7.10;;;12.70;99.90;;;;;;5012176;28;20061;-78
2021/10/17 11:24:54;;;;;;;15.07;7.25;;;12.80;99.90;;;;;;5028053;28;20486;-78
2021/10/17 11:27:20;;;;;;;20.60;7.45;;;12.80;99.90;;;;;;5029811;28;20065;-78
2021/10/17 11:29:47;;;;;;;19.35;7.65;;;12.80;99.90;;;;;;5011216;28;20121;-79
2021/10/17 11:32:19;;;;;;;18.70;7.55;;;12.80;99.90;;;;;;5011305;28;20045;-81
2021/10/17 11:35:05;;;;;;;15.60;6.95;;;12.80;99.90;;;;;;4994340;28;20061;-79
2021/10/17 11:37:32;;;;;;;15.95;7.35;;;12.80;99.90;;;;;;5012653;28;20507;-80
2021/10/17 11:40:08;;;;;;;15.05;6.38;;;12.80;99.90;;;;;;4987100;28;20061;-80
2021/10/17 11:42:47;;;;;;;16.42;7.55;;;13.00;99.90;;;;;;4992270;28;20544;-79
2021/10/17 11:45:33;;;;;;;15.88;7.18;;;13.00;99.90;;;;;;5017621;28;20485;-84
2021/10/17 11:48:01;;;;;;;14.13;7.05;;;12.90;99.90;;;;;;4978614;28;20057;-80
2021/10/17 11:50:29;;;;;;;15.13;7.13;;;12.90;99.90;;;;;;4993985;28;20081;-83
2021/10/17 11:53:00;;;;;;;16.13;7.60;;;12.90;99.90;;;;;;5029899;28;20047;-82
2021/10/17 11:55:47;;;;;;;17.63;6.72;;;13.00;99.90;;;;;;5014588;28;20049;-81
2021/10/17 11:58:14;;;;;;;15.70;6.72;;;13.00;99.90;;;;;;5005215;28;20453;-81
2021/10/17 12:00:41;;;;;;;15.00;6.55;;;12.90;99.90;;;;;;5013386;28;20050;-79
2021/10/17 12:03:07;;;;;;;14.50;6.90;;;12.90;99.90;;;;;;5023923;28;20364;-84
2021/10/17 12:05:33;;;;;;;16.02;6.45;;;12.90;99.90;;;;;;5022731;28;20034;-80
2021/10/17 12:07:59;;;;;;;15.55;6.85;;;13.00;99.90;;;;;;5014312;28;20049;-82
2021/10/17 12:10:27;;;;;;;15.02;6.15;;;12.90;99.90;;;;;;5030731;28;20136;-80
2021/10/17 12:12:58;;;;;;;13.45;6.47;;;13.00;99.90;;;;;;5030864;28;20057;-82
2021/10/17 12:15:24;;;;;;;14.75;6.05;;;13.00;99.90;;;;;;5028659;28;20477;-81
2021/10/17 12:18:03;;;;;;;13.65;6.07;;;13.10;99.90;;;;;;4984878;28;20084;-83
2021/10/17 12:20:31;;;;;;;11.40;5.68;;;13.10;99.90;;;;;;4991631;28;20041;-81
2021/10/17 12:22:59;;;;;;;13.60;6.00;;;13.20;99.90;;;;;;5014045;28;20041;-82
2021/10/17 12:25:25;;;;;;;15.10;6.15;;;13.30;99.90;;;;;;5013666;28;20060;-82
2021/10/17 12:27:51;;;;;;;13.43;5.47;;;13.20;99.90;;;;;;4997832;28;20056;-81
2021/10/17 12:30:37;;;;;;;10.45;5.30;;;13.30;99.90;;;;;;5014205;28;20412;-80
2021/10/17 12:33:04;;;;;;;15.20;5.80;;;13.30;99.90;;;;;;4994610;28;20042;-79
2021/10/17 12:35:38;;;;;;;13.98;5.35;;;13.40;99.90;;;;;;5008666;28;20052;-81
2021/10/17 12:38:11;;;;;;;10.57;5.35;;;13.50;99.90;;;;;;4993981;28;20049;-81